createdAt,value
2023-01-28T00:01:27.678Z,-1.56
2023-01-28T00:03:54.873Z,-1.49
2023-01-28T00:06:21.803Z,-1.57
2023-01-28T00:08:49.228Z,-1.48
2023-01-28T00:11:16.141Z,-1.55
2023-01-28T00:13:43.238Z,-1.57
2023-01-28T00:16:10.619Z,-1.62
2023-01-28T00:18:38.254Z,-1.65
2023-01-28T00:21:13.734Z,-1.63
2023-01-28T00:23:43.129Z,-1.74
2023-01-28T00:26:15.047Z,-1.82
2023-01-28T00:28:43.465Z,-1.81
2023-01-28T00:31:19.255Z,-1.68
2023-01-28T00:33:49.378Z,-1.71
2023-01-28T00:36:18.975Z,-1.62
2023-01-28T00:39:00.221Z,-1.58
2023-01-28T00:41:30.101Z,-1.50
2023-01-28T00:43:57.663Z,-1.50
2023-01-28T00:46:26.485Z,-1.58
2023-01-28T00:48:53.777Z,-1.58
2023-01-28T00:51:21.760Z,-1.54
2023-01-28T00:53:49.036Z,-1.42
2023-01-28T00:56:18.303Z,-1.34
2023-01-28T00:58:45.853Z,-1.35
2023-01-28T01:01:26.620Z,-1.54
2023-01-28T01:04:02.394Z,-1.97
2023-01-28T01:06:37.341Z,-1.90
2023-01-28T01:09:09.140Z,-1.91
2023-01-28T01:11:36.739Z,-1.80
2023-01-28T01:14:05.275Z,-1.72
2023-01-28T01:16:33.634Z,-1.77
2023-01-28T01:19:01.060Z,-1.73
2023-01-28T01:21:30.511Z,-1.69
2023-01-28T01:23:57.612Z,-1.60
2023-01-28T01:26:27.345Z,-1.40
2023-01-28T01:28:54.429Z,-1.30
2023-01-28T01:31:23.304Z,-1.24
2023-01-28T01:33:52.484Z,-1.03
2023-01-28T01:36:21.884Z,-0.84
2023-01-28T01:38:56.251Z,-0.74
2023-01-28T01:41:30.940Z,-0.72
2023-01-28T01:44:00.620Z,-0.59
2023-01-28T01:46:37.954Z,-0.59
2023-01-28T01:49:27.034Z,-0.68
2023-01-28T01:52:11.178Z,-0.73
2023-01-28T01:54:41.409Z,-0.78
2023-01-28T01:57:14.733Z,-0.76
2023-01-28T01:59:43.847Z,-0.69
2023-01-28T02:02:12.868Z,-0.62
2023-01-28T02:04:44.723Z,-0.46
2023-01-28T02:07:15.986Z,-0.62
2023-01-28T02:09:43.195Z,-0.65
2023-01-28T02:12:26.499Z,-0.58
2023-01-28T02:15:01.423Z,-0.74
2023-01-28T02:17:29.206Z,-0.67
2023-01-28T02:20:06.889Z,-0.61
2023-01-28T02:23:01.781Z,-0.59
2023-01-28T02:26:41.128Z,-0.76
2023-01-28T02:29:34.665Z,-0.83
2023-01-28T02:32:24.362Z,-0.73
2023-01-28T02:35:35.597Z,-0.80
2023-01-28T02:38:15.424Z,-0.46
2023-01-28T02:41:02.460Z,-0.39
2023-01-28T02:43:47.060Z,-0.57
2023-01-28T02:46:54.067Z,-0.57
2023-01-28T02:49:40.556Z,-0.60
2023-01-28T02:53:08.920Z,-0.54
2023-01-28T02:55:55.257Z,-0.70
2023-01-28T02:58:46.076Z,-0.60
2023-01-28T03:01:43.685Z,-0.49
2023-01-28T03:04:43.539Z,-0.50
2023-01-28T03:07:13.649Z,-0.36
2023-01-28T03:09:45.799Z,-0.42
2023-01-28T03:12:42.300Z,-0.33
2023-01-28T03:15:35.486Z,-0.16
2023-01-28T03:18:46.380Z,-0.14
2023-01-28T03:21:59.133Z,-0.19
2023-01-28T03:24:52.551Z,0.00
2023-01-28T03:27:54.770Z,-0.07
2023-01-28T03:30:50.673Z,0.06
2023-01-28T03:33:37.083Z,0.03
2023-01-28T03:36:25.443Z,-0.19
2023-01-28T03:38:52.700Z,-0.11
2023-01-28T03:41:26.774Z,-0.03
2023-01-28T03:43:54.784Z,-0.37
2023-01-28T03:46:22.433Z,-0.30
2023-01-28T03:48:49.617Z,-0.22
2023-01-28T03:51:17.883Z,-0.14
2023-01-28T03:53:44.890Z,0.08
2023-01-28T03:56:18.570Z,0.21
2023-01-28T03:58:56.941Z,0.34
2023-01-28T04:01:24.473Z,0.32
2023-01-28T04:03:51.747Z,0.39
2023-01-28T04:06:18.797Z,0.22
2023-01-28T04:08:48.943Z,0.33
2023-01-28T04:11:16.316Z,0.21
2023-01-28T04:13:44.399Z,0.18
2023-01-28T04:16:14.182Z,0.30
2023-01-28T04:18:41.407Z,0.30
2023-01-28T04:21:08.490Z,0.45
2023-01-28T04:23:38.544Z,0.51
2023-01-28T04:26:05.540Z,0.49
2023-01-28T04:28:32.685Z,0.56
2023-01-28T04:30:59.839Z,0.54
2023-01-28T04:33:26.962Z,0.50
2023-01-28T04:35:54.083Z,0.44
2023-01-28T04:38:21.233Z,0.50
2023-01-28T04:40:53.384Z,0.48
2023-01-28T04:43:20.925Z,0.17
2023-01-28T04:45:49.279Z,0.38
2023-01-28T04:48:17.628Z,0.50
2023-01-28T04:50:45.814Z,0.57
2023-01-28T04:53:13.292Z,0.48
2023-01-28T04:55:40.629Z,0.46
2023-01-28T04:58:08.169Z,0.31
2023-01-28T05:00:35.239Z,0.23
2023-01-28T05:03:02.532Z,0.22
2023-01-28T05:05:32.268Z,0.30
2023-01-28T05:07:59.787Z,0.28
2023-01-28T05:10:27.783Z,0.31
2023-01-28T05:12:55.103Z,0.37
2023-01-28T05:15:22.627Z,0.21
2023-01-28T05:17:49.596Z,0.28
2023-01-28T05:20:17.818Z,0.40
2023-01-28T05:22:44.836Z,0.40
2023-01-28T05:25:11.982Z,0.46
2023-01-28T05:27:39.420Z,0.28
2023-01-28T05:30:07.940Z,0.37
2023-01-28T05:32:35.132Z,0.22
2023-01-28T05:35:02.193Z,0.34
2023-01-28T05:37:29.236Z,0.43
2023-01-28T05:39:56.433Z,0.39
2023-01-28T05:42:23.628Z,0.52
2023-01-28T05:44:50.734Z,0.52
2023-01-28T05:47:17.872Z,0.38
2023-01-28T05:49:46.392Z,0.26
2023-01-28T05:52:13.614Z,0.14
2023-01-28T05:54:40.689Z,0.39
2023-01-28T05:57:07.708Z,0.39
2023-01-28T05:59:34.749Z,0.00
2023-01-28T06:02:01.889Z,0.31
2023-01-28T06:04:28.922Z,0.40
2023-01-28T06:06:56.013Z,0.46
2023-01-28T06:09:23.049Z,0.60
2023-01-28T06:11:50.932Z,0.56
2023-01-28T06:14:18.061Z,0.50
2023-01-28T06:16:45.520Z,0.39
2023-01-28T06:19:12.686Z,0.30
2023-01-28T06:21:40.047Z,0.43
2023-01-28T06:24:07.417Z,0.53
2023-01-28T06:26:34.364Z,0.53
2023-01-28T06:29:01.558Z,0.49
2023-01-28T06:31:28.544Z,0.62
2023-01-28T06:33:55.449Z,0.69
2023-01-28T06:36:22.517Z,0.64
2023-01-28T06:38:49.465Z,0.63
2023-01-28T06:41:16.391Z,0.77
2023-01-28T06:43:43.334Z,0.46
2023-01-28T06:46:10.373Z,0.59
2023-01-28T06:48:37.343Z,0.45
2023-01-28T06:51:04.835Z,0.37
2023-01-28T06:53:32.119Z,0.24
2023-01-28T06:55:59.441Z,0.38
2023-01-28T06:58:26.407Z,0.56
2023-01-28T07:00:54.047Z,0.56
2023-01-28T07:03:21.148Z,0.64
2023-01-28T07:05:48.108Z,0.42
2023-01-28T07:08:15.188Z,0.54
2023-01-28T07:10:42.247Z,0.73
2023-01-28T07:13:09.319Z,0.77
2023-01-28T07:15:36.900Z,0.68
2023-01-28T07:18:04.197Z,0.67
2023-01-28T07:20:31.408Z,0.54
2023-01-28T07:22:58.336Z,0.45
2023-01-28T07:25:25.349Z,0.56
2023-01-28T07:27:53.997Z,0.73
2023-01-28T07:30:22.309Z,0.70
2023-01-28T07:32:58.493Z,0.88
2023-01-28T07:35:27.080Z,0.96
2023-01-28T07:38:00.291Z,1.08
2023-01-28T07:40:29.732Z,1.15
2023-01-28T07:42:56.908Z,1.12
2023-01-28T07:45:25.922Z,0.97
2023-01-28T07:47:58.896Z,1.13
2023-01-28T07:50:26.966Z,1.19
2023-01-28T07:52:54.420Z,1.26
2023-01-28T07:55:21.919Z,1.30
2023-01-28T07:57:58.281Z,1.32
2023-01-28T08:00:29.580Z,1.22
2023-01-28T08:03:03.699Z,1.35
2023-01-28T08:05:48.469Z,1.21
2023-01-28T08:08:16.649Z,1.16
2023-01-28T08:10:44.082Z,1.21
2023-01-28T08:13:14.064Z,1.24
2023-01-28T08:15:41.734Z,1.33
2023-01-28T08:18:13.264Z,1.32
2023-01-28T08:20:43.443Z,1.46
2023-01-28T08:23:16.233Z,1.55
2023-01-28T08:25:43.577Z,1.44
2023-01-28T08:28:12.061Z,1.48
2023-01-28T08:30:40.356Z,1.43
2023-01-28T08:33:12.853Z,1.17
2023-01-28T08:35:40.458Z,1.32
2023-01-28T08:38:10.352Z,1.38
2023-01-28T08:40:37.631Z,1.29
2023-01-28T08:43:05.722Z,1.53
2023-01-28T08:45:33.100Z,1.64
2023-01-28T08:48:05.346Z,1.54
2023-01-28T08:50:37.910Z,1.46
2023-01-28T08:53:14.303Z,1.15
2023-01-28T08:55:41.425Z,1.48
2023-01-28T08:58:15.075Z,1.37
2023-01-28T09:00:46.773Z,1.46
2023-01-28T09:03:13.793Z,1.66
2023-01-28T09:05:40.776Z,1.52
2023-01-28T09:08:13.571Z,1.66
2023-01-28T09:10:42.040Z,1.63
2023-01-28T09:13:15.912Z,1.62
2023-01-28T09:15:43.291Z,1.58
2023-01-28T09:18:10.772Z,1.42
2023-01-28T09:20:38.668Z,1.19
2023-01-28T09:23:06.155Z,1.28
2023-01-28T09:25:34.084Z,1.69
2023-01-28T09:28:00.976Z,1.97
2023-01-28T09:30:28.850Z,1.89
2023-01-28T09:32:58.297Z,1.53
2023-01-28T09:35:25.519Z,1.55
2023-01-28T09:37:56.463Z,1.87
2023-01-28T09:40:43.841Z,1.95
2023-01-28T09:43:48.947Z,1.94
2023-01-28T09:46:18.482Z,1.80
2023-01-28T09:48:51.982Z,2.11
2023-01-28T09:51:40.412Z,2.16
2023-01-28T09:54:41.020Z,2.09
2023-01-28T09:57:48.428Z,1.72
2023-01-28T10:00:26.491Z,2.00
2023-01-28T10:03:08.651Z,2.01
2023-01-28T10:05:50.908Z,2.01
2023-01-28T10:09:26.278Z,2.10
2023-01-28T10:12:28.342Z,2.31
2023-01-28T10:15:29.367Z,2.25
2023-01-28T10:18:16.898Z,2.34
2023-01-28T10:20:55.187Z,2.19
2023-01-28T10:23:43.509Z,1.94
2023-01-28T10:26:24.304Z,2.12
2023-01-28T10:28:58.224Z,2.13
2023-01-28T10:31:39.574Z,2.34
2023-01-28T10:34:06.675Z,2.36
2023-01-28T10:36:34.149Z,2.10
2023-01-28T10:39:01.131Z,2.16
2023-01-28T10:41:28.172Z,2.15
2023-01-28T10:43:56.895Z,2.36
2023-01-28T10:46:36.493Z,2.51
2023-01-28T10:49:25.374Z,2.46
2023-01-28T10:51:52.310Z,2.51
2023-01-28T10:54:29.247Z,2.46
2023-01-28T10:57:18.158Z,2.50
2023-01-28T10:59:45.855Z,2.30
2023-01-28T11:02:33.407Z,2.46
2023-01-28T11:05:21.155Z,2.67
2023-01-28T11:07:49.983Z,2.75
2023-01-28T11:10:37.620Z,2.60
2023-01-28T11:13:14.859Z,2.56
2023-01-28T11:15:59.260Z,2.37
2023-01-28T11:18:40.713Z,2.31
2023-01-28T11:21:31.294Z,2.56
2023-01-28T11:24:15.471Z,2.75
2023-01-28T11:26:52.859Z,2.76
2023-01-28T11:29:33.843Z,2.60
2023-01-28T11:32:01.494Z,2.56
2023-01-28T11:34:35.203Z,2.69
2023-01-28T11:37:16.170Z,2.37
2023-01-28T11:39:43.369Z,2.67
2023-01-28T11:42:22.137Z,2.78
2023-01-28T11:44:50.154Z,2.64
2023-01-28T11:47:35.697Z,2.71
2023-01-28T11:50:25.449Z,2.61
2023-01-28T11:53:08.116Z,2.85
2023-01-28T11:56:41.369Z,2.82
2023-01-28T11:59:32.551Z,2.95
2023-01-28T12:02:40.736Z,2.76
2023-01-28T12:05:51.416Z,2.85
2023-01-28T12:08:34.556Z,2.84
2023-01-28T12:12:10.473Z,2.83
2023-01-28T12:15:14.753Z,2.96
2023-01-28T12:18:31.047Z,2.95
2023-01-28T12:21:10.587Z,2.69
2023-01-28T12:24:39.302Z,2.67
2023-01-28T12:27:57.764Z,2.46
2023-01-28T12:30:53.035Z,2.50
2023-01-28T12:33:50.079Z,2.65
2023-01-28T12:36:49.741Z,2.75
2023-01-28T12:39:51.844Z,2.67
2023-01-28T12:42:51.925Z,2.76
2023-01-28T12:45:38.531Z,2.79
2023-01-28T12:48:24.797Z,2.66
2023-01-28T12:51:07.314Z,2.52
2023-01-28T12:53:55.756Z,2.56
2023-01-28T12:56:50.829Z,2.76
2023-01-28T12:59:43.298Z,2.80
2023-01-28T13:02:13.072Z,2.75
2023-01-28T13:05:17.014Z,2.66
2023-01-28T13:08:09.043Z,2.69
2023-01-28T13:10:43.874Z,2.60
2023-01-28T13:13:32.670Z,2.47
2023-01-28T13:16:01.438Z,2.48
2023-01-28T13:18:45.660Z,2.58
2023-01-28T13:21:40.181Z,2.64
2023-01-28T13:24:14.585Z,2.70
2023-01-28T13:26:56.002Z,2.69
2023-01-28T13:29:26.029Z,2.36
2023-01-28T13:31:57.391Z,2.43
2023-01-28T13:34:37.967Z,2.74
2023-01-28T13:37:34.313Z,2.85
2023-01-28T13:40:13.480Z,2.92
2023-01-28T13:42:41.854Z,2.74
2023-01-28T13:45:16.990Z,2.76
2023-01-28T13:48:38.452Z,2.82
2023-01-28T13:51:22.769Z,2.86
2023-01-28T13:54:20.988Z,2.79
2023-01-28T13:57:00.328Z,2.87
2023-01-28T14:00:00.717Z,2.80
2023-01-28T14:02:53.351Z,2.88
2023-01-28T14:05:42.783Z,2.79
2023-01-28T14:08:43.972Z,2.86
2023-01-28T14:11:27.317Z,2.98
2023-01-28T14:14:52.736Z,2.73
2023-01-28T14:17:48.259Z,2.29
2023-01-28T14:20:37.489Z,2.50
2023-01-28T14:23:21.929Z,2.80
2023-01-28T14:26:23.564Z,2.98
2023-01-28T14:29:25.026Z,2.72
2023-01-28T14:31:53.902Z,2.79
2023-01-28T14:34:36.654Z,2.91
2023-01-28T14:37:13.874Z,2.81
2023-01-28T14:40:06.812Z,2.86
2023-01-28T14:42:48.057Z,2.30
2023-01-28T14:45:49.154Z,2.50
2023-01-28T14:48:38.178Z,1.94
2023-01-28T14:51:57.993Z,2.07
2023-01-28T14:55:00.143Z,2.17
2023-01-28T14:57:39.600Z,2.25
2023-01-28T15:00:26.833Z,2.03
2023-01-28T15:02:54.147Z,2.35
2023-01-28T15:05:27.427Z,2.23
2023-01-28T15:07:56.013Z,2.26
2023-01-28T15:10:35.597Z,2.14
2023-01-28T15:13:15.354Z,2.13
2023-01-28T15:15:52.046Z,2.23
2023-01-28T15:18:24.761Z,2.26
2023-01-28T15:20:55.184Z,2.33
2023-01-28T15:23:41.976Z,2.29
2023-01-28T15:26:18.958Z,2.26
2023-01-28T15:28:48.287Z,2.24
2023-01-28T15:31:28.858Z,2.03
2023-01-28T15:34:17.809Z,1.90
2023-01-28T15:36:45.091Z,1.90
2023-01-28T15:39:22.561Z,1.76
2023-01-28T15:42:08.052Z,1.90
2023-01-28T15:44:42.273Z,1.93
2023-01-28T15:47:34.138Z,1.88
2023-01-28T15:50:15.194Z,1.77
2023-01-28T15:52:45.270Z,1.79
2023-01-28T15:55:46.133Z,1.79
2023-01-28T15:58:31.471Z,1.91
2023-01-28T16:01:10.962Z,1.91
2023-01-28T16:03:43.442Z,1.86
2023-01-28T16:06:23.230Z,1.86
2023-01-28T16:09:01.327Z,1.73
2023-01-28T16:11:41.403Z,1.66
2023-01-28T16:14:31.534Z,1.72
2023-01-28T16:16:58.593Z,1.73
2023-01-28T16:19:33.858Z,1.58
2023-01-28T16:22:01.889Z,1.54
2023-01-28T16:24:36.286Z,1.66
2023-01-28T16:27:19.860Z,1.69
2023-01-28T16:29:46.793Z,1.57
2023-01-28T16:32:39.497Z,1.56
2023-01-28T16:35:29.791Z,1.54
2023-01-28T16:38:00.142Z,1.53
2023-01-28T16:40:27.241Z,1.55
2023-01-28T16:42:55.841Z,1.54
2023-01-28T16:45:25.325Z,1.24
2023-01-28T16:47:53.412Z,1.34
2023-01-28T16:50:22.087Z,1.35
2023-01-28T16:52:53.880Z,1.36
2023-01-28T16:55:22.734Z,1.36
2023-01-28T16:57:54.560Z,1.37
2023-01-28T17:00:27.683Z,1.44
2023-01-28T17:02:55.073Z,1.45
2023-01-28T17:05:26.789Z,1.27
2023-01-28T17:07:56.318Z,1.30
2023-01-28T17:10:23.205Z,1.20
2023-01-28T17:12:50.179Z,1.35
2023-01-28T17:15:18.449Z,1.21
2023-01-28T17:17:49.479Z,1.37
2023-01-28T17:20:17.497Z,1.28
2023-01-28T17:22:44.539Z,1.25
2023-01-28T17:25:12.281Z,1.19
2023-01-28T17:27:40.021Z,1.18
2023-01-28T17:30:08.450Z,1.28
2023-01-28T17:32:35.392Z,1.26
2023-01-28T17:35:02.549Z,1.26
2023-01-28T17:37:29.567Z,1.15
2023-01-28T17:39:56.614Z,1.06
2023-01-28T17:42:23.631Z,1.29
2023-01-28T17:44:50.588Z,1.28
2023-01-28T17:47:18.052Z,1.15
2023-01-28T17:49:44.983Z,1.20
2023-01-28T17:52:12.103Z,1.08
2023-01-28T17:54:39.348Z,0.95
2023-01-28T17:57:06.283Z,1.13
2023-01-28T17:59:33.260Z,1.07
2023-01-28T18:02:00.239Z,0.96
2023-01-28T18:04:27.312Z,0.88
2023-01-28T18:06:54.308Z,0.86
2023-01-28T18:09:21.292Z,0.92
2023-01-28T18:11:51.281Z,0.91
2023-01-28T18:14:18.209Z,0.85
2023-01-28T18:16:45.106Z,0.77
2023-01-28T18:19:12.055Z,0.77
2023-01-28T18:21:56.967Z,0.74
2023-01-28T18:24:28.849Z,0.71
2023-01-28T18:26:59.756Z,0.61
2023-01-28T18:29:29.451Z,0.61
2023-01-28T18:31:59.488Z,0.60
2023-01-28T18:34:29.086Z,0.61
2023-01-28T18:36:57.416Z,0.56
2023-01-28T18:39:30.258Z,0.53
2023-01-28T18:41:58.760Z,0.52
2023-01-28T18:44:32.713Z,0.52
2023-01-28T18:46:59.651Z,0.58
2023-01-28T18:49:26.655Z,0.61
2023-01-28T18:51:53.970Z,0.70
2023-01-28T18:54:21.015Z,0.71
2023-01-28T18:56:49.435Z,0.69
2023-01-28T18:59:16.675Z,0.75
2023-01-28T19:01:44.400Z,0.75
2023-01-28T19:04:11.631Z,0.77
2023-01-28T19:06:38.633Z,0.75
2023-01-28T19:09:07.075Z,0.76
2023-01-28T19:11:35.315Z,0.69
2023-01-28T19:14:02.582Z,0.74
2023-01-28T19:16:30.607Z,0.78
2023-01-28T19:19:00.654Z,0.79
2023-01-28T19:21:30.722Z,0.82
2023-01-28T19:24:02.791Z,0.82
2023-01-28T19:26:31.194Z,0.76
2023-01-28T19:29:01.634Z,0.75
2023-01-28T19:31:29.105Z,0.78
2023-01-28T19:33:59.926Z,0.78
2023-01-28T19:36:31.167Z,0.74
2023-01-28T19:39:00.774Z,0.79
2023-01-28T19:41:29.246Z,0.74
2023-01-28T19:43:57.478Z,0.81
2023-01-28T19:46:25.421Z,0.78
2023-01-28T19:48:53.067Z,0.80
2023-01-28T19:51:21.003Z,0.77
2023-01-28T19:53:52.153Z,0.77
2023-01-28T19:56:22.506Z,0.77
2023-01-28T19:58:49.953Z,0.68
2023-01-28T20:01:23.751Z,0.65
2023-01-28T20:03:55.053Z,0.67
2023-01-28T20:06:24.535Z,0.36
2023-01-28T20:08:54.926Z,0.42
2023-01-28T20:11:23.307Z,0.56
2023-01-28T20:13:51.889Z,0.51
2023-01-28T20:16:31.974Z,0.55
2023-01-28T20:19:12.732Z,0.48
2023-01-28T20:21:39.766Z,0.50
2023-01-28T20:24:07.646Z,0.44
2023-01-28T20:26:37.468Z,0.34
2023-01-28T20:29:15.027Z,0.35
2023-01-28T20:31:42.979Z,0.26
2023-01-28T20:34:19.567Z,0.22
2023-01-28T20:36:47.053Z,0.25
2023-01-28T20:39:14.732Z,0.21
2023-01-28T20:41:41.714Z,0.18
2023-01-28T20:44:08.652Z,0.22
2023-01-28T20:46:36.635Z,0.25
2023-01-28T20:49:08.037Z,0.23
2023-01-28T20:51:36.146Z,0.21
2023-01-28T20:54:03.508Z,0.17
2023-01-28T20:56:31.223Z,0.11
2023-01-28T20:59:03.416Z,0.06
2023-01-28T21:01:35.292Z,0.00
2023-01-28T21:04:06.144Z,-0.07
2023-01-28T21:06:36.490Z,-0.09
2023-01-28T21:09:05.579Z,-0.10
2023-01-28T21:11:32.672Z,-0.12
2023-01-28T21:13:59.651Z,-0.15
2023-01-28T21:16:26.923Z,-0.19
2023-01-28T21:18:53.873Z,-0.21
2023-01-28T21:21:26.096Z,-0.20
2023-01-28T21:23:57.799Z,-0.22
2023-01-28T21:26:25.847Z,-0.29
2023-01-28T21:28:52.767Z,-0.29
2023-01-28T21:31:27.726Z,-0.28
2023-01-28T21:33:58.729Z,-0.30
2023-01-28T21:36:31.762Z,-0.24
2023-01-28T21:39:00.938Z,-0.20
2023-01-28T21:41:28.273Z,-0.26
2023-01-28T21:43:57.575Z,-0.27
2023-01-28T21:46:29.570Z,-0.33
2023-01-28T21:49:07.569Z,-0.32
2023-01-28T21:51:45.821Z,-0.34
2023-01-28T21:54:17.286Z,-0.33
2023-01-28T21:56:50.537Z,-0.37
2023-01-28T21:59:30.655Z,-0.46
2023-01-28T22:02:02.800Z,-0.43
2023-01-28T22:04:40.150Z,-0.41
2023-01-28T22:07:11.652Z,-0.37
2023-01-28T22:09:39.983Z,-0.31
2023-01-28T22:12:08.097Z,-0.30
2023-01-28T22:14:37.274Z,-0.28
2023-01-28T22:17:11.033Z,-0.22
2023-01-28T22:19:39.044Z,-0.20
2023-01-28T22:22:06.979Z,-0.17
2023-01-28T22:24:34.174Z,-0.20
2023-01-28T22:27:01.295Z,-0.14
2023-01-28T22:29:28.324Z,-0.17
2023-01-28T22:31:55.428Z,-0.16
2023-01-28T22:34:23.386Z,-0.17
2023-01-28T22:36:51.563Z,-0.16
2023-01-28T22:39:19.304Z,-0.17
2023-01-28T22:41:46.979Z,-0.09
2023-01-28T22:44:14.916Z,-0.02
2023-01-28T22:46:42.289Z,0.05
2023-01-28T22:49:11.896Z,0.05
2023-01-28T22:51:39.003Z,0.10
2023-01-28T22:54:06.036Z,0.08
2023-01-28T22:56:33.033Z,0.11
2023-01-28T22:59:03.654Z,0.15
2023-01-28T23:01:31.046Z,0.22
2023-01-28T23:03:58.480Z,0.19
2023-01-28T23:06:27.437Z,0.15
2023-01-28T23:08:56.268Z,0.17
2023-01-28T23:11:27.963Z,0.22
2023-01-28T23:14:20.979Z,0.14
2023-01-28T23:17:07.674Z,0.13
2023-01-28T23:19:53.959Z,0.18
2023-01-28T23:22:51.730Z,0.18
2023-01-28T23:25:20.323Z,0.22
2023-01-28T23:27:47.283Z,0.25
2023-01-28T23:30:15.709Z,0.21
2023-01-28T23:32:50.043Z,0.20
2023-01-28T23:35:19.220Z,0.15
2023-01-28T23:37:48.148Z,0.24
2023-01-28T23:40:16.932Z,0.18
2023-01-28T23:42:50.266Z,0.17
2023-01-28T23:45:18.397Z,0.18
2023-01-28T23:47:45.572Z,0.19
2023-01-28T23:50:12.831Z,0.19
2023-01-28T23:52:39.880Z,0.21
2023-01-28T23:55:07.986Z,0.24
2023-01-28T23:57:36.496Z,0.19
